sensor_id;sensor_type;location;lat;lon;timestamp;temperature;humidity
12847;DHT22;6492;48.128;8.320;2023-05-07T00:03:57;8.70;72.10
12847;DHT22;6492;48.128;8.320;2023-05-07T00:07:59;8.70;72.50
12847;DHT22;6492;48.128;8.320;2023-05-07T00:12:03;8.60;72.60
12847;DHT22;6492;48.128;8.320;2023-05-07T00:16:05;8.70;73.20
12847;DHT22;6492;48.128;8.320;2023-05-07T00:20:07;8.70;73.50
12847;DHT22;6492;48.128;8.320;2023-05-07T00:24:09;8.70;73.90
12847;DHT22;6492;48.128;8.320;2023-05-07T00:28:13;8.70;73.90
12847;DHT22;6492;48.128;8.320;2023-05-07T00:32:15;8.70;74.60
12847;DHT22;6492;48.128;8.320;2023-05-07T00:36:16;8.70;74.90
12847;DHT22;6492;48.128;8.320;2023-05-07T00:40:18;8.80;75.40
12847;DHT22;6492;48.128;8.320;2023-05-07T00:44:21;8.80;75.50
12847;DHT22;6492;48.128;8.320;2023-05-07T00:48:25;8.80;75.80
12847;DHT22;6492;48.128;8.320;2023-05-07T00:52:27;8.90;76.60
12847;DHT22;6492;48.128;8.320;2023-05-07T00:56:31;9.00;77.20
12847;DHT22;6492;48.128;8.320;2023-05-07T01:00:34;9.10;77.60
12847;DHT22;6492;48.128;8.320;2023-05-07T01:04:37;9.10;77.70
12847;DHT22;6492;48.128;8.320;2023-05-07T01:08:39;9.20;77.40
12847;DHT22;6492;48.128;8.320;2023-05-07T01:12:43;9.10;76.90
12847;DHT22;6492;48.128;8.320;2023-05-07T01:16:47;9.10;77.10
12847;DHT22;6492;48.128;8.320;2023-05-07T01:20:51;9.20;77.70
12847;DHT22;6492;48.128;8.320;2023-05-07T01:24:55;9.20;77.20
12847;DHT22;6492;48.128;8.320;2023-05-07T01:28:56;9.30;77.80
12847;DHT22;6492;48.128;8.320;2023-05-07T01:33:01;9.30;78.00
12847;DHT22;6492;48.128;8.320;2023-05-07T01:37:05;9.20;76.80
12847;DHT22;6492;48.128;8.320;2023-05-07T01:41:08;9.20;76.30
12847;DHT22;6492;48.128;8.320;2023-05-07T01:45:10;9.00;76.00
12847;DHT22;6492;48.128;8.320;2023-05-07T01:49:12;8.90;76.00
12847;DHT22;6492;48.128;8.320;2023-05-07T01:53:14;8.90;76.10
12847;DHT22;6492;48.128;8.320;2023-05-07T01:57:18;8.80;76.40
12847;DHT22;6492;48.128;8.320;2023-05-07T02:01:20;8.80;76.80
12847;DHT22;6492;48.128;8.320;2023-05-07T02:05:21;8.80;77.40
12847;DHT22;6492;48.128;8.320;2023-05-07T02:09:23;8.80;77.30
12847;DHT22;6492;48.128;8.320;2023-05-07T02:13:31;8.80;77.90
12847;DHT22;6492;48.128;8.320;2023-05-07T02:17:33;8.90;78.60
12847;DHT22;6492;48.128;8.320;2023-05-07T02:21:35;8.80;78.20
12847;DHT22;6492;48.128;8.320;2023-05-07T02:25:38;8.80;78.50
12847;DHT22;6492;48.128;8.320;2023-05-07T02:29:41;8.80;78.40
12847;DHT22;6492;48.128;8.320;2023-05-07T02:33:42;8.80;78.70
12847;DHT22;6492;48.128;8.320;2023-05-07T02:37:45;8.90;79.30
12847;DHT22;6492;48.128;8.320;2023-05-07T02:41:47;9.10;79.70
12847;DHT22;6492;48.128;8.320;2023-05-07T02:46:00;8.80;79.30
12847;DHT22;6492;48.128;8.320;2023-05-07T02:50:02;8.80;79.40
12847;DHT22;6492;48.128;8.320;2023-05-07T02:54:04;8.80;79.70
12847;DHT22;6492;48.128;8.320;2023-05-07T02:58:06;8.80;80.10
12847;DHT22;6492;48.128;8.320;2023-05-07T03:02:09;8.80;80.40
12847;DHT22;6492;48.128;8.320;2023-05-07T03:06:11;8.80;80.40
12847;DHT22;6492;48.128;8.320;2023-05-07T03:10:13;8.90;80.80
12847;DHT22;6492;48.128;8.320;2023-05-07T03:14:15;8.90;80.90
12847;DHT22;6492;48.128;8.320;2023-05-07T03:18:18;8.80;80.60
12847;DHT22;6492;48.128;8.320;2023-05-07T03:22:20;8.70;80.40
12847;DHT22;6492;48.128;8.320;2023-05-07T03:26:22;8.60;80.10
12847;DHT22;6492;48.128;8.320;2023-05-07T03:30:24;8.50;79.90
12847;DHT22;6492;48.128;8.320;2023-05-07T03:34:28;8.60;80.60
12847;DHT22;6492;48.128;8.320;2023-05-07T03:38:30;8.60;80.80
12847;DHT22;6492;48.128;8.320;2023-05-07T03:42:31;8.60;81.10
12847;DHT22;6492;48.128;8.320;2023-05-07T03:46:33;8.60;81.30
12847;DHT22;6492;48.128;8.320;2023-05-07T03:50:37;8.70;81.60
12847;DHT22;6492;48.128;8.320;2023-05-07T03:54:39;8.60;81.60
12847;DHT22;6492;48.128;8.320;2023-05-07T03:58:41;8.60;81.40
12847;DHT22;6492;48.128;8.320;2023-05-07T04:02:43;8.50;81.30
12847;DHT22;6492;48.128;8.320;2023-05-07T04:06:49;8.50;81.60
12847;DHT22;6492;48.128;8.320;2023-05-07T04:10:54;8.50;81.90
12847;DHT22;6492;48.128;8.320;2023-05-07T04:14:56;8.60;82.20
12847;DHT22;6492;48.128;8.320;2023-05-07T04:19:01;8.60;82.30
12847;DHT22;6492;48.128;8.320;2023-05-07T04:23:04;8.80;82.80
12847;DHT22;6492;48.128;8.320;2023-05-07T04:27:06;8.90;83.10
12847;DHT22;6492;48.128;8.320;2023-05-07T04:31:07;9.00;83.30
12847;DHT22;6492;48.128;8.320;2023-05-07T04:35:10;9.20;83.60
12847;DHT22;6492;48.128;8.320;2023-05-07T04:39:13;9.20;83.80
12847;DHT22;6492;48.128;8.320;2023-05-07T04:43:15;9.20;83.70
12847;DHT22;6492;48.128;8.320;2023-05-07T04:47:17;9.30;83.90
12847;DHT22;6492;48.128;8.320;2023-05-07T04:51:19;9.40;84.00
12847;DHT22;6492;48.128;8.320;2023-05-07T04:55:22;9.50;84.20
12847;DHT22;6492;48.128;8.320;2023-05-07T04:59:24;9.60;84.30
12847;DHT22;6492;48.128;8.320;2023-05-07T05:03:25;9.60;84.30
12847;DHT22;6492;48.128;8.320;2023-05-07T05:07:27;9.80;84.60
12847;DHT22;6492;48.128;8.320;2023-05-07T05:11:30;9.90;84.80
12847;DHT22;6492;48.128;8.320;2023-05-07T05:15:32;10.20;85.00
12847;DHT22;6492;48.128;8.320;2023-05-07T05:19:34;10.40;85.20
12847;DHT22;6492;48.128;8.320;2023-05-07T05:23:36;10.60;85.50
12847;DHT22;6492;48.128;8.320;2023-05-07T05:27:39;10.80;85.60
12847;DHT22;6492;48.128;8.320;2023-05-07T05:31:41;11.10;85.50
12847;DHT22;6492;48.128;8.320;2023-05-07T05:35:43;11.40;83.60
12847;DHT22;6492;48.128;8.320;2023-05-07T05:39:45;11.60;79.10
12847;DHT22;6492;48.128;8.320;2023-05-07T05:43:48;11.90;72.60
12847;DHT22;6492;48.128;8.320;2023-05-07T05:47:50;12.10;67.60
12847;DHT22;6492;48.128;8.320;2023-05-07T05:51:52;12.30;64.70
12847;DHT22;6492;48.128;8.320;2023-05-07T05:55:54;12.50;61.70
12847;DHT22;6492;48.128;8.320;2023-05-07T05:59:58;12.80;60.80
12847;DHT22;6492;48.128;8.320;2023-05-07T06:03:59;13.10;58.80
12847;DHT22;6492;48.128;8.320;2023-05-07T06:08:01;13.30;55.50
12847;DHT22;6492;48.128;8.320;2023-05-07T06:12:15;13.60;52.60
12847;DHT22;6492;48.128;8.320;2023-05-07T06:16:18;13.90;49.50
12847;DHT22;6492;48.128;8.320;2023-05-07T06:20:20;14.10;44.70
12847;DHT22;6492;48.128;8.320;2023-05-07T06:24:22;14.40;41.50
12847;DHT22;6492;48.128;8.320;2023-05-07T06:28:24;14.60;43.10
12847;DHT22;6492;48.128;8.320;2023-05-07T06:32:40;14.80;43.10
12847;DHT22;6492;48.128;8.320;2023-05-07T06:36:44;14.90;35.80
12847;DHT22;6492;48.128;8.320;2023-05-07T06:40:50;15.20;37.30
12847;DHT22;6492;48.128;8.320;2023-05-07T06:45:24;15.40;36.90
12847;DHT22;6492;48.128;8.320;2023-05-07T06:49:28;15.50;34.90
12847;DHT22;6492;48.128;8.320;2023-05-07T06:53:39;15.60;32.10
12847;DHT22;6492;48.128;8.320;2023-05-07T06:57:40;15.80;29.60
12847;DHT22;6492;48.128;8.320;2023-05-07T07:01:42;16.10;26.60
12847;DHT22;6492;48.128;8.320;2023-05-07T07:05:46;16.70;26.60
12847;DHT22;6492;48.128;8.320;2023-05-07T07:09:49;17.60;22.80
12847;DHT22;6492;48.128;8.320;2023-05-07T07:13:52;18.40;21.20
12847;DHT22;6492;48.128;8.320;2023-05-07T07:18:19;19.50;15.90
12847;DHT22;6492;48.128;8.320;2023-05-07T07:26:52;21.90;7.50
12847;DHT22;6492;48.128;8.320;2023-05-07T07:30:59;22.70;4.40
12847;DHT22;6492;48.128;8.320;2023-05-07T07:35:00;22.50;3.40
12847;DHT22;6492;48.128;8.320;2023-05-07T07:39:02;22.00;4.10
12847;DHT22;6492;48.128;8.320;2023-05-07T07:43:06;21.40;3.00
12847;DHT22;6492;48.128;8.320;2023-05-07T07:47:08;21.00;4.90
12847;DHT22;6492;48.128;8.320;2023-05-07T07:51:12;21.10;7.90
12847;DHT22;6492;48.128;8.320;2023-05-07T07:55:14;21.80;5.10
12847;DHT22;6492;48.128;8.320;2023-05-07T07:59:19;22.90;2.90
12847;DHT22;6492;48.128;8.320;2023-05-07T08:03:21;24.00;1.00
12847;DHT22;6492;48.128;8.320;2023-05-07T08:07:23;25.00;1.00
12847;DHT22;6492;48.128;8.320;2023-05-07T08:11:25;25.50;1.00
12847;DHT22;6492;48.128;8.320;2023-05-07T08:15:28;25.90;1.00
12847;DHT22;6492;48.128;8.320;2023-05-07T08:19:30;25.90;1.00
12847;DHT22;6492;48.128;8.320;2023-05-07T08:23:32;25.20;1.00
12847;DHT22;6492;48.128;8.320;2023-05-07T08:27:34;24.70;1.00
12847;DHT22;6492;48.128;8.320;2023-05-07T08:31:49;24.00;1.00
12847;DHT22;6492;48.128;8.320;2023-05-07T08:35:51;23.20;1.00
12847;DHT22;6492;48.128;8.320;2023-05-07T08:40:07;22.60;2.10
12847;DHT22;6492;48.128;8.320;2023-05-07T08:44:12;21.80;3.70
12847;DHT22;6492;48.128;8.320;2023-05-07T08:48:17;21.10;4.60
12847;DHT22;6492;48.128;8.320;2023-05-07T08:52:28;20.40;6.10
12847;DHT22;6492;48.128;8.320;2023-05-07T08:56:38;19.80;8.40
12847;DHT22;6492;48.128;8.320;2023-05-07T09:00:59;19.50;9.60
12847;DHT22;6492;48.128;8.320;2023-05-07T09:05:04;19.40;10.10
12847;DHT22;6492;48.128;8.320;2023-05-07T09:09:05;19.40;10.90
12847;DHT22;6492;48.128;8.320;2023-05-07T09:13:07;19.40;12.80
12847;DHT22;6492;48.128;8.320;2023-05-07T09:17:11;19.60;12.60
12847;DHT22;6492;48.128;8.320;2023-05-07T09:21:16;19.90;12.40
12847;DHT22;6492;48.128;8.320;2023-05-07T09:25:28;20.20;11.10
12847;DHT22;6492;48.128;8.320;2023-05-07T09:29:30;20.50;10.80
12847;DHT22;6492;48.128;8.320;2023-05-07T09:33:35;20.60;8.70
12847;DHT22;6492;48.128;8.320;2023-05-07T09:37:40;20.90;9.00
12847;DHT22;6492;48.128;8.320;2023-05-07T09:41:52;21.20;9.30
12847;DHT22;6492;48.128;8.320;2023-05-07T09:45:55;21.50;7.40
12847;DHT22;6492;48.128;8.320;2023-05-07T09:49:57;21.70;5.90
12847;DHT22;6492;48.128;8.320;2023-05-07T09:54:02;22.20;7.60
12847;DHT22;6492;48.128;8.320;2023-05-07T09:58:06;22.80;2.80
12847;DHT22;6492;48.128;8.320;2023-05-07T10:02:10;23.20;3.90
12847;DHT22;6492;48.128;8.320;2023-05-07T10:06:12;23.60;1.00
12847;DHT22;6492;48.128;8.320;2023-05-07T10:10:16;23.70;1.00
12847;DHT22;6492;48.128;8.320;2023-05-07T10:14:20;24.00;1.00
12847;DHT22;6492;48.128;8.320;2023-05-07T10:18:23;24.00;1.00
12847;DHT22;6492;48.128;8.320;2023-05-07T10:22:34;24.10;1.00
12847;DHT22;6492;48.128;8.320;2023-05-07T10:26:41;24.20;1.00
12847;DHT22;6492;48.128;8.320;2023-05-07T10:30:57;24.00;1.00
12847;DHT22;6492;48.128;8.320;2023-05-07T10:35:04;23.40;1.00
12847;DHT22;6492;48.128;8.320;2023-05-07T10:39:08;22.60;2.90
12847;DHT22;6492;48.128;8.320;2023-05-07T10:43:11;21.90;3.60
12847;DHT22;6492;48.128;8.320;2023-05-07T10:47:16;21.10;5.50
12847;DHT22;6492;48.128;8.320;2023-05-07T10:51:19;20.10;12.20
12847;DHT22;6492;48.128;8.320;2023-05-07T10:55:23;19.00;19.70
12847;DHT22;6492;48.128;8.320;2023-05-07T10:59:37;17.30;23.20
12847;DHT22;6492;48.128;8.320;2023-05-07T11:04:12;15.50;27.50
12847;DHT22;6492;48.128;8.320;2023-05-07T11:08:14;13.60;29.00
12847;DHT22;6492;48.128;8.320;2023-05-07T11:12:16;12.20;31.80
12847;DHT22;6492;48.128;8.320;2023-05-07T11:16:20;11.70;38.60
12847;DHT22;6492;48.128;8.320;2023-05-07T11:20:48;10.30;48.00
12847;DHT22;6492;48.128;8.320;2023-05-07T11:24:50;10.00;57.40
12847;DHT22;6492;48.128;8.320;2023-05-07T11:28:53;9.70;58.70
12847;DHT22;6492;48.128;8.320;2023-05-07T11:32:57;9.30;61.00
12847;DHT22;6492;48.128;8.320;2023-05-07T11:37:01;9.00;63.80
12847;DHT22;6492;48.128;8.320;2023-05-07T11:41:03;8.90;67.50
12847;DHT22;6492;48.128;8.320;2023-05-07T11:45:07;8.80;70.00
12847;DHT22;6492;48.128;8.320;2023-05-07T11:49:10;8.80;71.30
12847;DHT22;6492;48.128;8.320;2023-05-07T11:53:12;8.80;73.50
12847;DHT22;6492;48.128;8.320;2023-05-07T11:57:14;9.80;75.90
12847;DHT22;6492;48.128;8.320;2023-05-07T12:01:31;9.10;76.90
12847;DHT22;6492;48.128;8.320;2023-05-07T12:05:35;9.30;78.00
12847;DHT22;6492;48.128;8.320;2023-05-07T12:09:37;9.50;79.00
12847;DHT22;6492;48.128;8.320;2023-05-07T12:13:41;9.70;79.60
12847;DHT22;6492;48.128;8.320;2023-05-07T12:17:43;10.10;80.50
12847;DHT22;6492;48.128;8.320;2023-05-07T12:21:47;10.20;81.00
12847;DHT22;6492;48.128;8.320;2023-05-07T12:25:49;10.60;82.10
12847;DHT22;6492;48.128;8.320;2023-05-07T12:29:51;10.80;82.60
12847;DHT22;6492;48.128;8.320;2023-05-07T12:33:53;11.10;82.70
12847;DHT22;6492;48.128;8.320;2023-05-07T12:37:57;11.80;83.90
12847;DHT22;6492;48.128;8.320;2023-05-07T12:42:00;12.60;84.80
12847;DHT22;6492;48.128;8.320;2023-05-07T12:46:04;13.40;85.00
12847;DHT22;6492;48.128;8.320;2023-05-07T12:50:06;14.40;85.00
12847;DHT22;6492;48.128;8.320;2023-05-07T12:54:10;15.20;75.40
12847;DHT22;6492;48.128;8.320;2023-05-07T12:58:16;15.60;62.50
12847;DHT22;6492;48.128;8.320;2023-05-07T13:02:18;15.90;60.00
12847;DHT22;6492;48.128;8.320;2023-05-07T13:06:20;16.30;58.20
12847;DHT22;6492;48.128;8.320;2023-05-07T13:10:24;16.70;51.00
12847;DHT22;6492;48.128;8.320;2023-05-07T13:14:26;16.70;52.30
12847;DHT22;6492;48.128;8.320;2023-05-07T13:18:30;17.10;50.60
12847;DHT22;6492;48.128;8.320;2023-05-07T13:22:32;17.30;43.20
12847;DHT22;6492;48.128;8.320;2023-05-07T13:26:46;17.20;43.40
12847;DHT22;6492;48.128;8.320;2023-05-07T13:31:13;17.50;43.10
12847;DHT22;6492;48.128;8.320;2023-05-07T13:35:16;17.80;38.20
12847;DHT22;6492;48.128;8.320;2023-05-07T13:39:22;17.90;39.20
12847;DHT22;6492;48.128;8.320;2023-05-07T13:43:28;17.70;36.90
12847;DHT22;6492;48.128;8.320;2023-05-07T13:47:49;17.60;36.50
12847;DHT22;6492;48.128;8.320;2023-05-07T13:51:51;17.30;35.30
12847;DHT22;6492;48.128;8.320;2023-05-07T13:55:53;16.80;36.50
12847;DHT22;6492;48.128;8.320;2023-05-07T13:59:57;16.30;36.70
12847;DHT22;6492;48.128;8.320;2023-05-07T14:03:59;15.80;37.80
12847;DHT22;6492;48.128;8.320;2023-05-07T14:08:01;15.70;39.30
12847;DHT22;6492;48.128;8.320;2023-05-07T14:12:04;15.10;42.00
12847;DHT22;6492;48.128;8.320;2023-05-07T14:16:16;14.80;45.30
12847;DHT22;6492;48.128;8.320;2023-05-07T14:20:25;14.60;46.50
12847;DHT22;6492;48.128;8.320;2023-05-07T14:24:41;14.30;48.00
12847;DHT22;6492;48.128;8.320;2023-05-07T14:29:02;14.10;50.70
12847;DHT22;6492;48.128;8.320;2023-05-07T14:33:36;13.90;53.00
12847;DHT22;6492;48.128;8.320;2023-05-07T14:37:51;13.70;55.20
12847;DHT22;6492;48.128;8.320;2023-05-07T14:42:21;13.50;56.80
12847;DHT22;6492;48.128;8.320;2023-05-07T14:46:23;13.40;58.80
12847;DHT22;6492;48.128;8.320;2023-05-07T14:50:52;13.30;60.30
12847;DHT22;6492;48.128;8.320;2023-05-07T14:54:53;13.20;62.40
12847;DHT22;6492;48.128;8.320;2023-05-07T14:58:55;13.10;66.50
12847;DHT22;6492;48.128;8.320;2023-05-07T15:03:05;13.20;69.70
12847;DHT22;6492;48.128;8.320;2023-05-07T15:07:08;13.50;73.30
12847;DHT22;6492;48.128;8.320;2023-05-07T15:11:14;13.90;75.20
12847;DHT22;6492;48.128;8.320;2023-05-07T15:15:17;14.20;73.10
12847;DHT22;6492;48.128;8.320;2023-05-07T15:19:18;14.60;67.20
12847;DHT22;6492;48.128;8.320;2023-05-07T15:23:23;15.40;64.60
12847;DHT22;6492;48.128;8.320;2023-05-07T15:27:26;16.10;57.10
12847;DHT22;6492;48.128;8.320;2023-05-07T15:31:34;16.60;46.00
12847;DHT22;6492;48.128;8.320;2023-05-07T15:35:38;16.90;41.80
12847;DHT22;6492;48.128;8.320;2023-05-07T15:39:41;17.00;40.00
12847;DHT22;6492;48.128;8.320;2023-05-07T15:44:14;17.20;42.90
12847;DHT22;6492;48.128;8.320;2023-05-07T15:48:19;17.70;39.20
12847;DHT22;6492;48.128;8.320;2023-05-07T15:52:21;18.40;35.20
12847;DHT22;6492;48.128;8.320;2023-05-07T15:56:56;18.60;31.90
12847;DHT22;6492;48.128;8.320;2023-05-07T16:01:07;18.60;28.90
12847;DHT22;6492;48.128;8.320;2023-05-07T16:05:09;18.20;29.30
12847;DHT22;6492;48.128;8.320;2023-05-07T16:09:15;18.00;30.10
12847;DHT22;6492;48.128;8.320;2023-05-07T16:13:22;17.90;29.80
12847;DHT22;6492;48.128;8.320;2023-05-07T16:17:52;17.40;29.90
12847;DHT22;6492;48.128;8.320;2023-05-07T16:21:57;17.00;32.00
12847;DHT22;6492;48.128;8.320;2023-05-07T16:26:01;17.00;33.20
12847;DHT22;6492;48.128;8.320;2023-05-07T16:30:07;16.90;31.80
12847;DHT22;6492;48.128;8.320;2023-05-07T16:34:40;16.80;32.40
12847;DHT22;6492;48.128;8.320;2023-05-07T16:38:41;16.60;34.50
12847;DHT22;6492;48.128;8.320;2023-05-07T16:42:50;16.50;36.20
12847;DHT22;6492;48.128;8.320;2023-05-07T16:46:53;16.30;35.20
12847;DHT22;6492;48.128;8.320;2023-05-07T16:51:03;16.00;37.10
12847;DHT22;6492;48.128;8.320;2023-05-07T16:55:07;15.70;37.80
12847;DHT22;6492;48.128;8.320;2023-05-07T16:59:19;15.40;40.50
12847;DHT22;6492;48.128;8.320;2023-05-07T17:03:24;15.10;40.20
12847;DHT22;6492;48.128;8.320;2023-05-07T17:07:45;14.80;40.60
12847;DHT22;6492;48.128;8.320;2023-05-07T17:11:47;14.50;43.60
12847;DHT22;6492;48.128;8.320;2023-05-07T17:15:49;14.20;45.20
12847;DHT22;6492;48.128;8.320;2023-05-07T17:20:22;13.90;46.20
12847;DHT22;6492;48.128;8.320;2023-05-07T17:24:30;13.60;47.30
12847;DHT22;6492;48.128;8.320;2023-05-07T17:28:32;13.40;48.80
12847;DHT22;6492;48.128;8.320;2023-05-07T17:32:34;13.20;50.90
12847;DHT22;6492;48.128;8.320;2023-05-07T17:36:41;13.10;52.80
12847;DHT22;6492;48.128;8.320;2023-05-07T17:40:51;13.00;53.00
12847;DHT22;6492;48.128;8.320;2023-05-07T17:45:06;12.90;53.70
12847;DHT22;6492;48.128;8.320;2023-05-07T17:49:08;12.80;54.80
12847;DHT22;6492;48.128;8.320;2023-05-07T17:53:12;12.80;56.30
12847;DHT22;6492;48.128;8.320;2023-05-07T17:57:14;12.80;57.60
12847;DHT22;6492;48.128;8.320;2023-05-07T18:01:21;12.70;57.70
12847;DHT22;6492;48.128;8.320;2023-05-07T18:05:22;12.60;58.20
12847;DHT22;6492;48.128;8.320;2023-05-07T18:09:37;12.50;58.60
12847;DHT22;6492;48.128;8.320;2023-05-07T18:13:40;12.50;59.50
12847;DHT22;6492;48.128;8.320;2023-05-07T18:17:41;12.50;60.30
12847;DHT22;6492;48.128;8.320;2023-05-07T18:21:43;12.50;61.00
12847;DHT22;6492;48.128;8.320;2023-05-07T18:25:58;12.40;61.60
12847;DHT22;6492;48.128;8.320;2023-05-07T18:30:00;12.30;62.50
12847;DHT22;6492;48.128;8.320;2023-05-07T18:34:02;12.30;63.70
12847;DHT22;6492;48.128;8.320;2023-05-07T18:38:05;12.20;65.80
12847;DHT22;6492;48.128;8.320;2023-05-07T18:42:27;12.20;67.20
12847;DHT22;6492;48.128;8.320;2023-05-07T18:46:29;12.00;67.80
12847;DHT22;6492;48.128;8.320;2023-05-07T18:50:31;12.00;68.50
12847;DHT22;6492;48.128;8.320;2023-05-07T18:54:34;11.90;69.30
12847;DHT22;6492;48.128;8.320;2023-05-07T18:58:50;11.80;70.00
12847;DHT22;6492;48.128;8.320;2023-05-07T19:02:52;11.80;70.90
12847;DHT22;6492;48.128;8.320;2023-05-07T19:06:54;11.70;71.40
12847;DHT22;6492;48.128;8.320;2023-05-07T19:10:56;11.70;72.10
12847;DHT22;6492;48.128;8.320;2023-05-07T19:19:46;11.70;73.60
12847;DHT22;6492;48.128;8.320;2023-05-07T19:23:48;11.70;74.40
12847;DHT22;6492;48.128;8.320;2023-05-07T19:27:55;11.70;75.10
12847;DHT22;6492;48.128;8.320;2023-05-07T19:31:56;11.70;75.80
12847;DHT22;6492;48.128;8.320;2023-05-07T19:36:01;11.70;76.40
12847;DHT22;6492;48.128;8.320;2023-05-07T19:40:05;11.80;77.00
12847;DHT22;6492;48.128;8.320;2023-05-07T19:44:08;11.80;77.50
12847;DHT22;6492;48.128;8.320;2023-05-07T19:48:11;11.80;78.00
12847;DHT22;6492;48.128;8.320;2023-05-07T19:52:33;11.80;78.30
12847;DHT22;6492;48.128;8.320;2023-05-07T19:56:35;11.80;78.40
12847;DHT22;6492;48.128;8.320;2023-05-07T20:00:37;11.70;78.50
12847;DHT22;6492;48.128;8.320;2023-05-07T20:04:39;11.70;78.60
12847;DHT22;6492;48.128;8.320;2023-05-07T20:08:42;11.70;78.80
12847;DHT22;6492;48.128;8.320;2023-05-07T20:12:44;11.70;79.00
12847;DHT22;6492;48.128;8.320;2023-05-07T20:16:46;11.70;79.10
12847;DHT22;6492;48.128;8.320;2023-05-07T20:20:49;11.70;79.20
12847;DHT22;6492;48.128;8.320;2023-05-07T20:24:53;11.70;79.20
12847;DHT22;6492;48.128;8.320;2023-05-07T20:28:56;11.70;79.20
12847;DHT22;6492;48.128;8.320;2023-05-07T20:32:57;11.70;79.20
12847;DHT22;6492;48.128;8.320;2023-05-07T20:36:59;11.70;79.30
12847;DHT22;6492;48.128;8.320;2023-05-07T20:41:10;11.60;79.20
12847;DHT22;6492;48.128;8.320;2023-05-07T20:45:13;11.60;79.40
12847;DHT22;6492;48.128;8.320;2023-05-07T20:49:15;11.60;79.40
12847;DHT22;6492;48.128;8.320;2023-05-07T20:53:17;11.50;79.50
12847;DHT22;6492;48.128;8.320;2023-05-07T20:57:21;11.50;79.80
12847;DHT22;6492;48.128;8.320;2023-05-07T21:01:22;11.50;79.90
12847;DHT22;6492;48.128;8.320;2023-05-07T21:05:25;11.50;80.20
12847;DHT22;6492;48.128;8.320;2023-05-07T21:10:00;11.50;80.30
12847;DHT22;6492;48.128;8.320;2023-05-07T21:14:04;11.50;80.20
12847;DHT22;6492;48.128;8.320;2023-05-07T21:18:06;11.40;80.20
12847;DHT22;6492;48.128;8.320;2023-05-07T21:22:07;11.50;80.50
12847;DHT22;6492;48.128;8.320;2023-05-07T21:26:15;11.40;80.60
12847;DHT22;6492;48.128;8.320;2023-05-07T21:30:19;11.40;80.60
12847;DHT22;6492;48.128;8.320;2023-05-07T21:34:21;11.40;80.60
12847;DHT22;6492;48.128;8.320;2023-05-07T21:38:22;11.40;80.40
12847;DHT22;6492;48.128;8.320;2023-05-07T21:42:25;11.30;80.40
12847;DHT22;6492;48.128;8.320;2023-05-07T21:46:29;11.30;80.60
12847;DHT22;6492;48.128;8.320;2023-05-07T21:50:30;11.30;80.90
12847;DHT22;6492;48.128;8.320;2023-05-07T21:54:32;11.30;80.90
12847;DHT22;6492;48.128;8.320;2023-05-07T21:58:34;11.30;81.10
12847;DHT22;6492;48.128;8.320;2023-05-07T22:02:37;11.30;81.20
12847;DHT22;6492;48.128;8.320;2023-05-07T22:06:39;11.30;81.40
12847;DHT22;6492;48.128;8.320;2023-05-07T22:10:40;11.30;81.50
12847;DHT22;6492;48.128;8.320;2023-05-07T22:14:42;11.30;81.60
12847;DHT22;6492;48.128;8.320;2023-05-07T22:18:45;11.30;81.80
12847;DHT22;6492;48.128;8.320;2023-05-07T22:22:51;11.30;81.90
12847;DHT22;6492;48.128;8.320;2023-05-07T22:26:53;11.20;81.80
12847;DHT22;6492;48.128;8.320;2023-05-07T22:30:55;11.20;82.10
12847;DHT22;6492;48.128;8.320;2023-05-07T22:34:58;11.20;82.10
12847;DHT22;6492;48.128;8.320;2023-05-07T22:39:00;11.10;82.40
12847;DHT22;6492;48.128;8.320;2023-05-07T22:43:06;11.10;82.60
12847;DHT22;6492;48.128;8.320;2023-05-07T22:47:08;11.10;82.70
12847;DHT22;6492;48.128;8.320;2023-05-07T22:51:13;11.00;82.70
12847;DHT22;6492;48.128;8.320;2023-05-07T22:55:15;11.00;82.80
12847;DHT22;6492;48.128;8.320;2023-05-07T22:59:17;11.00;82.80
12847;DHT22;6492;48.128;8.320;2023-05-07T23:03:18;11.00;82.90
12847;DHT22;6492;48.128;8.320;2023-05-07T23:07:22;10.90;83.10
12847;DHT22;6492;48.128;8.320;2023-05-07T23:11:24;10.90;83.10
12847;DHT22;6492;48.128;8.320;2023-05-07T23:15:26;10.90;83.20
12847;DHT22;6492;48.128;8.320;2023-05-07T23:19:27;10.90;83.30
12847;DHT22;6492;48.128;8.320;2023-05-07T23:23:32;10.90;83.30
12847;DHT22;6492;48.128;8.320;2023-05-07T23:27:53;10.80;83.30
12847;DHT22;6492;48.128;8.320;2023-05-07T23:31:55;10.80;83.40
12847;DHT22;6492;48.128;8.320;2023-05-07T23:35:58;10.80;83.50
12847;DHT22;6492;48.128;8.320;2023-05-07T23:40:01;10.80;83.60
12847;DHT22;6492;48.128;8.320;2023-05-07T23:44:03;10.80;83.70
12847;DHT22;6492;48.128;8.320;2023-05-07T23:48:05;10.70;83.70
12847;DHT22;6492;48.128;8.320;2023-05-07T23:52:07;10.70;83.90
12847;DHT22;6492;48.128;8.320;2023-05-07T23:56:10;10.70;84.80
